メインページ
METAR-TAF:

METAR-TAF

空港 :

マリスカル・スクレ国際空港

キト, エクアドル

緯度: 0-06-48S, 経度: 78-21-31W, 海抜: 2400m

現時点の気象観測

当レポートは1時間0分前の05:00(UTC)に作成
変向風 1kt
気温 13°C
湿度 100%
気圧 1028 hPa
視程: 8000m
高度500ftの雲は散在している
高度2000ftの千切れ雲あり
散在霧

METAR: SEQM 210500Z VRB01KT 8000 BCFG SCT005 BKN020 13/13 Q1028 NOSIG RMK A3036

時間: 01:00 (06:00 UTC)

予報

当レポートは1時間30分前の04:30(UTC)に作成
予報は21日の 06時(UTC)から 22日の 06時(UTC)まで有効
変向風 3kt
視程: 8000m
高度500ftの雲はほとんどない
高度2000ftの千切れ雲あり
21日の 09時(UTC)から 21日の 11時(UTC)まで一時的に
視程: 4000m
散在霧
21日の 1200時(UTC)から
変向風 3kt
視程10km以上
高度3000ftの雲は散在している
高度10000ftの雲は散在している
21日の 1800時(UTC)から
の風 12kt
視程10km以上
高度3000ftの千切れ雲あり
高度10000ftの雲は散在している
22日の 0000時(UTC)から
北/北東の風 4kt
視程10km以上
高度1000ftの雲はほとんどない
高度2300ftの雲は散在している

TAF: SEQM 210430Z 2106/2206 VRB03KT 8000 FEW005 BKN020 TEMPO 2109/2111 4000 BCFG FM211200 VRB03KT 9999 SCT030 SCT100 FM211800 36012KT 9999 BKN030 SCT100 FM220000 03004KT 9999 FEW010 SCT023 TX23/2119Z TN12/2111Z

4,000以上の空港の気象観測と天気予報(METAR報とTAF報)

利用可能な観測所は地図上に黄色い丸と赤い丸で示す。

丸の上にカーソルを重ねると観測所名を参照できる。

次にクリックすると気象観測と天気予報を参照できる。

マップの切り替え:黒色「×」印の緑ボタンをクリックして拡大、「-」印の緑ボタンをクリックして縮小、緑色の三角印をクリックして隣りの地図に切り替え


METAR-TAF: